createdAt,value
2022-08-17T00:02:10.906Z,20.68
2022-08-17T00:04:26.532Z,20.64
2022-08-17T00:06:31.370Z,20.61
2022-08-17T00:08:41.112Z,20.58
2022-08-17T00:10:45.748Z,20.56
2022-08-17T00:12:50.293Z,20.56
2022-08-17T00:14:53.526Z,20.55
2022-08-17T00:16:58.565Z,20.56
2022-08-17T00:19:07.810Z,20.54
2022-08-17T00:21:12.695Z,20.51
2022-08-17T00:23:18.065Z,20.50
2022-08-17T00:25:21.104Z,20.47
2022-08-17T00:27:24.331Z,20.45
2022-08-17T00:29:28.731Z,20.41
2022-08-17T00:31:33.522Z,20.37
2022-08-17T00:33:37.262Z,20.36
2022-08-17T00:35:40.637Z,20.35
2022-08-17T00:37:43.701Z,20.32
2022-08-17T00:39:46.879Z,20.30
2022-08-17T00:41:49.972Z,20.28
2022-08-17T00:43:56.769Z,20.27
2022-08-17T00:46:03.430Z,20.25
2022-08-17T00:48:06.492Z,20.21
2022-08-17T00:50:29.480Z,20.19
2022-08-17T00:52:37.100Z,20.19
2022-08-17T00:54:42.244Z,20.16
2022-08-17T00:56:47.948Z,20.14
2022-08-17T00:58:53.428Z,20.13
2022-08-17T01:00:57.033Z,20.12
2022-08-17T01:03:06.231Z,20.07
2022-08-17T01:05:10.349Z,20.04
2022-08-17T01:07:13.831Z,20.03
2022-08-17T01:09:17.208Z,20.01
2022-08-17T01:11:21.127Z,20.01
2022-08-17T01:13:28.734Z,19.98
2022-08-17T01:15:32.784Z,19.96
2022-08-17T01:17:35.944Z,19.91
2022-08-17T01:19:42.329Z,19.90
2022-08-17T01:21:49.306Z,19.87
2022-08-17T01:23:53.840Z,19.86
2022-08-17T01:26:01.752Z,19.83
2022-08-17T01:28:05.599Z,19.82
2022-08-17T01:30:56.741Z,19.80
2022-08-17T01:32:35.451Z,19.80
2022-08-17T01:34:43.629Z,19.78
2022-08-17T01:36:53.450Z,19.76
2022-08-17T01:38:59.736Z,19.74
2022-08-17T01:41:04.882Z,19.73
2022-08-17T01:43:11.954Z,19.72
2022-08-17T01:45:19.305Z,19.68
2022-08-17T01:47:22.504Z,19.68
2022-08-17T01:49:27.012Z,19.67
2022-08-17T01:51:32.828Z,19.66
2022-08-17T01:53:40.208Z,19.64
2022-08-17T01:55:48.229Z,19.65
2022-08-17T01:57:51.528Z,19.61
2022-08-17T01:59:55.038Z,19.62
2022-08-17T02:01:58.530Z,19.58
2022-08-17T02:04:02.630Z,19.57
2022-08-17T02:06:11.974Z,19.56
2022-08-17T02:08:37.205Z,19.55
2022-08-17T02:10:46.791Z,19.54
2022-08-17T02:12:51.584Z,19.53
2022-08-17T02:14:54.819Z,19.51
2022-08-17T02:16:59.265Z,19.51
2022-08-17T02:19:02.534Z,19.52
2022-08-17T02:21:06.943Z,19.50
2022-08-17T02:23:12.604Z,19.46
2022-08-17T02:25:18.185Z,19.42
2022-08-17T02:27:25.253Z,19.37
2022-08-17T02:29:29.688Z,19.37
2022-08-17T02:31:32.854Z,19.36
2022-08-17T02:33:42.706Z,19.34
2022-08-17T02:35:46.631Z,19.35
2022-08-17T02:37:51.921Z,19.34
2022-08-17T02:39:59.405Z,19.32
2022-08-17T02:42:03.697Z,19.33
2022-08-17T02:44:08.019Z,19.34
2022-08-17T02:46:12.962Z,19.34
2022-08-17T02:48:15.991Z,19.35
2022-08-17T02:50:34.435Z,19.35
2022-08-17T02:52:43.650Z,19.31
2022-08-17T02:54:47.025Z,19.26
2022-08-17T02:56:50.124Z,19.24
2022-08-17T02:58:53.168Z,19.22
2022-08-17T03:00:56.216Z,19.20
2022-08-17T03:03:02.708Z,19.19
2022-08-17T03:05:06.765Z,19.17
2022-08-17T03:07:09.751Z,19.14
2022-08-17T03:09:13.247Z,19.11
2022-08-17T03:11:16.275Z,19.09
2022-08-17T03:13:19.554Z,19.06
2022-08-17T03:15:24.464Z,19.06
2022-08-17T03:17:27.613Z,19.03
2022-08-17T03:19:32.155Z,19.02
2022-08-17T03:21:35.260Z,18.99
2022-08-17T03:23:41.180Z,18.99
2022-08-17T03:25:46.413Z,18.96
2022-08-17T03:27:49.522Z,18.95
2022-08-17T03:29:55.086Z,18.97
2022-08-17T03:31:58.266Z,18.98
2022-08-17T03:34:02.075Z,18.99
2022-08-17T03:36:07.956Z,18.99
2022-08-17T03:38:12.324Z,18.96
2022-08-17T03:40:17.183Z,18.92
2022-08-17T03:42:41.634Z,18.87
2022-08-17T03:44:44.672Z,18.85
2022-08-17T03:47:05.475Z,18.84
2022-08-17T03:49:26.833Z,18.81
2022-08-17T03:51:48.783Z,18.76
2022-08-17T03:54:11.083Z,18.75
2022-08-17T03:56:40.106Z,18.74
2022-08-17T03:58:43.079Z,18.72
2022-08-17T04:00:46.500Z,18.69
2022-08-17T04:02:49.558Z,18.64
2022-08-17T04:04:52.859Z,18.59
2022-08-17T04:06:57.875Z,18.56
2022-08-17T04:09:00.883Z,18.55
2022-08-17T04:11:03.948Z,18.57
2022-08-17T04:13:07.004Z,18.58
2022-08-17T04:15:11.692Z,18.60
2022-08-17T04:17:15.068Z,18.63
2022-08-17T04:19:18.809Z,18.65
2022-08-17T04:21:22.543Z,18.64
2022-08-17T04:23:32.750Z,18.64
2022-08-17T04:25:41.600Z,18.63
2022-08-17T04:27:44.983Z,18.65
2022-08-17T04:29:54.273Z,18.67
2022-08-17T04:31:59.072Z,18.68
2022-08-17T04:34:02.456Z,18.70
2022-08-17T04:36:07.558Z,18.70
2022-08-17T04:38:14.246Z,18.70
2022-08-17T04:40:42.701Z,18.70
2022-08-17T04:43:01.701Z,18.71
2022-08-17T04:45:05.675Z,18.69
2022-08-17T04:47:08.730Z,18.69
2022-08-17T04:49:16.005Z,18.66
2022-08-17T04:51:21.495Z,18.64
2022-08-17T04:53:24.509Z,18.62
2022-08-17T04:55:29.083Z,18.59
2022-08-17T04:57:39.382Z,18.56
2022-08-17T04:59:44.887Z,18.51
2022-08-17T05:01:51.301Z,18.47
2022-08-17T05:03:56.110Z,18.46
2022-08-17T05:05:59.297Z,18.48
2022-08-17T05:08:04.232Z,18.51
2022-08-17T05:10:09.088Z,18.55
2022-08-17T05:12:13.527Z,18.60
2022-08-17T05:14:16.770Z,18.66
2022-08-17T05:16:21.248Z,18.74
2022-08-17T05:18:24.466Z,18.71
2022-08-17T05:20:28.749Z,18.72
2022-08-17T05:22:31.768Z,18.81
2022-08-17T05:24:40.775Z,18.93
2022-08-17T05:26:46.830Z,19.11
2022-08-17T05:28:53.972Z,19.32
2022-08-17T05:30:58.054Z,19.53
2022-08-17T05:33:02.988Z,19.72
2022-08-17T05:35:07.225Z,19.89
2022-08-17T05:37:10.353Z,20.06
2022-08-17T05:39:16.124Z,20.28
2022-08-17T05:41:20.371Z,20.55
2022-08-17T05:43:25.385Z,20.80
2022-08-17T05:45:55.354Z,21.06
2022-08-17T05:47:53.181Z,21.35
2022-08-17T05:49:56.361Z,21.60
2022-08-17T05:52:19.897Z,21.88
2022-08-17T05:54:31.903Z,22.22
2022-08-17T05:56:57.235Z,22.49
2022-08-17T05:59:08.830Z,22.72
2022-08-17T06:01:21.253Z,23.04
2022-08-17T06:03:34.235Z,23.22
2022-08-17T06:06:02.392Z,23.41
2022-08-17T06:08:14.682Z,23.57
2022-08-17T06:10:24.035Z,23.64
2022-08-17T06:12:38.447Z,23.78
2022-08-17T06:15:01.555Z,23.93
2022-08-17T06:17:11.476Z,24.13
2022-08-17T06:19:17.839Z,24.35
2022-08-17T06:21:23.751Z,24.55
2022-08-17T06:23:37.987Z,24.77
2022-08-17T06:25:50.819Z,25.09
2022-08-17T06:27:56.942Z,25.27
2022-08-17T06:30:09.141Z,25.36
2022-08-17T06:32:14.579Z,25.51
2022-08-17T06:34:18.599Z,25.58
2022-08-17T06:36:34.116Z,25.57
2022-08-17T06:38:43.849Z,25.61
2022-08-17T06:41:03.175Z,25.81
2022-08-17T06:43:14.933Z,26.00
2022-08-17T06:45:22.820Z,26.20
2022-08-17T06:47:31.281Z,26.40
2022-08-17T06:49:41.894Z,26.62
2022-08-17T06:51:48.664Z,26.74
2022-08-17T06:53:54.645Z,26.79
2022-08-17T06:56:00.962Z,26.94
2022-08-17T06:58:16.366Z,27.20
2022-08-17T07:00:22.282Z,27.40
2022-08-17T07:02:53.100Z,27.45
2022-08-17T07:04:56.866Z,27.39
2022-08-17T07:07:22.725Z,27.36
2022-08-17T07:09:31.184Z,27.63
2022-08-17T07:11:40.110Z,27.94
2022-08-17T07:13:51.220Z,28.11
2022-08-17T07:16:00.880Z,28.15
2022-08-17T07:18:05.672Z,28.16
2022-08-17T07:20:11.653Z,28.26
2022-08-17T07:22:22.624Z,28.52
2022-08-17T07:24:35.463Z,28.82
2022-08-17T07:26:39.365Z,29.01
2022-08-17T07:28:44.661Z,29.13
2022-08-17T07:30:51.587Z,29.26
2022-08-17T07:32:57.798Z,29.42
2022-08-17T07:35:15.281Z,29.59
2022-08-17T07:37:20.722Z,29.73
2022-08-17T07:39:27.862Z,29.97
2022-08-17T07:41:58.049Z,30.09
2022-08-17T07:43:58.787Z,29.95
2022-08-17T07:46:24.027Z,29.77
2022-08-17T07:48:27.188Z,29.80
2022-08-17T07:50:31.889Z,29.98
2022-08-17T07:52:51.345Z,30.21
2022-08-17T07:54:56.084Z,30.42
2022-08-17T07:57:01.461Z,30.59
2022-08-17T07:59:13.066Z,30.73
2022-08-17T08:01:18.362Z,30.67
2022-08-17T08:03:27.072Z,30.78
2022-08-17T08:05:50.097Z,30.90
2022-08-17T08:07:55.884Z,31.05
2022-08-17T08:10:07.751Z,31.18
2022-08-17T08:12:33.889Z,31.27
2022-08-17T08:14:39.662Z,31.34
2022-08-17T08:16:58.014Z,31.30
2022-08-17T08:19:03.055Z,31.27
2022-08-17T08:21:09.444Z,31.27
2022-08-17T08:23:19.557Z,31.28
2022-08-17T08:25:28.880Z,31.19
2022-08-17T08:27:48.631Z,31.02
2022-08-17T08:29:55.154Z,30.83
2022-08-17T08:32:04.831Z,30.66
2022-08-17T08:34:47.360Z,30.54
2022-08-17T08:37:13.003Z,30.41
2022-08-17T08:39:14.775Z,30.26
2022-08-17T08:41:26.533Z,30.07
2022-08-17T08:43:36.120Z,29.89
2022-08-17T08:45:47.245Z,29.72
2022-08-17T08:48:05.913Z,29.60
2022-08-17T08:50:37.600Z,29.46
2022-08-17T08:52:54.114Z,29.38
2022-08-17T08:55:02.554Z,29.35
2022-08-17T08:57:26.688Z,29.27
2022-08-17T08:59:36.294Z,29.20
2022-08-17T09:01:53.782Z,29.11
2022-08-17T09:04:24.703Z,29.08
2022-08-17T09:06:40.241Z,29.04
2022-08-17T09:08:55.505Z,29.02
2022-08-17T09:11:04.899Z,29.05
2022-08-17T09:13:20.782Z,29.09
2022-08-17T09:15:27.694Z,29.13
2022-08-17T09:17:36.611Z,29.09
2022-08-17T09:19:43.910Z,29.07
2022-08-17T09:21:52.509Z,29.00
2022-08-17T09:24:04.923Z,28.97
2022-08-17T09:26:14.812Z,28.88
2022-08-17T09:28:20.309Z,28.77
2022-08-17T09:30:24.989Z,28.69
2022-08-17T09:32:32.831Z,28.69
2022-08-17T09:34:39.803Z,28.73
2022-08-17T09:36:51.464Z,28.77
2022-08-17T09:39:01.163Z,28.80
2022-08-17T09:41:15.197Z,28.81
2022-08-17T09:43:26.044Z,28.83
2022-08-17T09:45:32.481Z,28.83
2022-08-17T09:47:42.157Z,28.85
2022-08-17T09:49:48.440Z,28.83
2022-08-17T09:51:55.541Z,28.87
2022-08-17T09:54:20.956Z,28.86
2022-08-17T09:56:31.234Z,28.79
2022-08-17T09:58:44.248Z,28.74
2022-08-17T10:00:57.684Z,28.72
2022-08-17T10:03:17.972Z,28.67
2022-08-17T10:05:24.044Z,28.72
2022-08-17T10:07:30.854Z,28.81
2022-08-17T10:09:45.845Z,28.84
2022-08-17T10:12:09.564Z,28.89
2022-08-17T10:14:36.997Z,28.95
2022-08-17T10:16:45.404Z,28.99
2022-08-17T10:18:57.919Z,29.02
2022-08-17T10:21:21.570Z,29.00
2022-08-17T10:23:44.329Z,28.98
2022-08-17T10:26:08.649Z,28.94
2022-08-17T10:28:19.972Z,28.91
2022-08-17T10:30:25.649Z,28.89
2022-08-17T10:32:33.808Z,28.88
2022-08-17T10:35:01.506Z,28.83
2022-08-17T10:37:14.052Z,28.83
2022-08-17T10:39:26.833Z,28.86
2022-08-17T10:41:39.707Z,28.94
2022-08-17T10:44:37.574Z,28.97
2022-08-17T10:46:31.191Z,28.96
2022-08-17T10:48:37.213Z,28.89
2022-08-17T10:50:59.655Z,28.86
2022-08-17T10:53:02.779Z,28.82
2022-08-17T10:55:14.087Z,28.81
2022-08-17T10:57:36.415Z,28.79
2022-08-17T10:59:51.736Z,28.76
2022-08-17T11:02:05.165Z,28.79
2022-08-17T11:04:18.070Z,28.80
2022-08-17T11:06:26.698Z,28.79
2022-08-17T11:09:07.332Z,28.79
2022-08-17T11:11:34.348Z,28.83
2022-08-17T11:13:48.471Z,28.81
2022-08-17T11:16:03.560Z,28.83
2022-08-17T11:18:35.096Z,28.82
2022-08-17T11:21:06.215Z,28.79
2022-08-17T11:23:29.440Z,28.77
2022-08-17T11:25:39.271Z,28.73
2022-08-17T11:27:43.356Z,28.66
2022-08-17T11:29:58.080Z,28.59
2022-08-17T11:32:11.245Z,28.47
2022-08-17T11:34:19.643Z,28.25
2022-08-17T11:36:31.617Z,28.06
2022-08-17T11:38:43.959Z,28.00
2022-08-17T11:41:15.084Z,27.99
2022-08-17T11:43:44.458Z,28.03
2022-08-17T11:46:05.240Z,28.08
2022-08-17T11:48:35.488Z,28.11
2022-08-17T11:51:03.579Z,28.11
2022-08-17T11:53:07.487Z,28.09
2022-08-17T11:55:34.426Z,28.10
2022-08-17T11:58:01.423Z,28.11
2022-08-17T12:00:10.302Z,28.13
2022-08-17T12:02:48.906Z,28.12
2022-08-17T12:05:11.967Z,28.07
2022-08-17T12:07:18.074Z,28.03
2022-08-17T12:09:24.801Z,28.00
2022-08-17T12:12:11.350Z,27.93
2022-08-17T12:13:57.769Z,27.84
2022-08-17T12:16:00.979Z,27.82
2022-08-17T12:18:04.653Z,27.85
2022-08-17T12:20:19.554Z,27.92
2022-08-17T12:22:26.544Z,27.94
2022-08-17T12:24:36.214Z,28.03
2022-08-17T12:26:39.297Z,28.11
2022-08-17T12:28:46.345Z,28.15
2022-08-17T12:30:52.054Z,28.25
2022-08-17T12:32:55.693Z,28.30
2022-08-17T12:34:58.947Z,28.19
2022-08-17T12:37:06.821Z,28.19
2022-08-17T12:39:14.583Z,28.27
2022-08-17T12:41:34.204Z,28.31
2022-08-17T12:43:37.336Z,28.25
2022-08-17T12:45:41.795Z,28.23
2022-08-17T12:47:45.739Z,28.26
2022-08-17T12:49:50.269Z,28.32
2022-08-17T12:51:58.249Z,28.31
2022-08-17T12:54:03.201Z,28.34
2022-08-17T12:56:11.995Z,28.40
2022-08-17T12:58:22.134Z,28.42
2022-08-17T13:00:28.758Z,28.47
2022-08-17T13:02:39.775Z,28.51
2022-08-17T13:04:42.931Z,28.54
2022-08-17T13:06:52.015Z,28.65
2022-08-17T13:09:12.415Z,28.73
2022-08-17T13:11:20.803Z,28.82
2022-08-17T13:13:26.561Z,28.87
2022-08-17T13:15:32.766Z,28.84
2022-08-17T13:17:37.246Z,28.94
2022-08-17T13:19:49.046Z,29.06
2022-08-17T13:21:54.479Z,29.09
2022-08-17T13:24:02.330Z,29.09
2022-08-17T13:26:09.674Z,29.16
2022-08-17T13:28:18.603Z,29.15
2022-08-17T13:30:34.240Z,29.16
2022-08-17T13:32:43.842Z,29.22
2022-08-17T13:35:15.055Z,29.25
2022-08-17T13:37:19.852Z,29.36
2022-08-17T13:39:26.379Z,29.49
2022-08-17T13:41:35.748Z,29.55
2022-08-17T13:43:42.683Z,29.53
2022-08-17T13:45:50.940Z,29.52
2022-08-17T13:48:06.379Z,29.58
2022-08-17T13:50:20.991Z,29.74
2022-08-17T13:52:37.951Z,29.86
2022-08-17T13:54:41.683Z,29.96
2022-08-17T13:56:55.122Z,30.05
2022-08-17T13:59:01.204Z,30.12
2022-08-17T14:01:32.160Z,30.18
2022-08-17T14:03:35.836Z,30.17
2022-08-17T14:05:39.977Z,30.13
2022-08-17T14:07:43.005Z,30.15
2022-08-17T14:09:49.121Z,30.26
2022-08-17T14:11:55.073Z,30.34
2022-08-17T14:13:58.709Z,30.40
2022-08-17T14:16:01.960Z,30.40
2022-08-17T14:18:05.231Z,30.43
2022-08-17T14:20:11.058Z,30.43
2022-08-17T14:22:19.590Z,30.43
2022-08-17T14:24:24.808Z,30.43
2022-08-17T14:26:27.932Z,30.44
2022-08-17T14:28:32.411Z,30.49
2022-08-17T14:30:37.701Z,30.56
2022-08-17T14:32:41.997Z,30.66
2022-08-17T14:34:46.050Z,30.63
2022-08-17T14:36:49.452Z,30.67
2022-08-17T14:38:52.605Z,30.74
2022-08-17T14:40:55.842Z,30.80
2022-08-17T14:42:59.241Z,30.87
2022-08-17T14:45:06.106Z,30.91
2022-08-17T14:47:11.895Z,30.85
2022-08-17T14:49:16.125Z,30.83
2022-08-17T14:51:20.764Z,30.81
2022-08-17T14:53:23.916Z,30.76
2022-08-17T14:55:27.112Z,30.73
2022-08-17T14:57:34.052Z,30.72
2022-08-17T14:59:37.430Z,30.66
2022-08-17T15:01:42.040Z,30.68
2022-08-17T15:03:45.256Z,30.71
2022-08-17T15:05:48.562Z,30.72
2022-08-17T15:07:53.449Z,30.70
2022-08-17T15:09:56.708Z,30.69
2022-08-17T15:12:02.317Z,30.70
2022-08-17T15:14:05.404Z,30.72
2022-08-17T15:16:09.780Z,30.73
2022-08-17T15:18:14.212Z,30.72
2022-08-17T15:20:19.396Z,30.69
2022-08-17T15:22:25.110Z,30.64
2022-08-17T15:24:28.197Z,30.61
2022-08-17T15:26:31.416Z,30.61
2022-08-17T15:28:34.587Z,30.58
2022-08-17T15:30:37.780Z,30.55
2022-08-17T15:32:50.619Z,30.55
2022-08-17T15:35:00.733Z,30.53
2022-08-17T15:37:03.897Z,30.49
2022-08-17T15:39:06.864Z,30.51
2022-08-17T15:41:14.984Z,30.47
2022-08-17T15:43:26.437Z,30.45
2022-08-17T15:45:30.723Z,30.43
2022-08-17T15:47:33.757Z,30.42
2022-08-17T15:49:40.052Z,30.42
2022-08-17T15:51:44.466Z,30.43
2022-08-17T15:53:50.791Z,30.44
2022-08-17T15:55:53.824Z,30.44
2022-08-17T15:57:56.945Z,30.43
2022-08-17T16:00:00.124Z,30.44
2022-08-17T16:03:14.042Z,30.40
2022-08-17T16:04:30.867Z,30.28
2022-08-17T16:06:34.893Z,30.19
2022-08-17T16:08:41.538Z,30.13
2022-08-17T16:10:44.575Z,30.08
2022-08-17T16:12:49.369Z,30.05
2022-08-17T16:14:54.231Z,30.02
2022-08-17T16:16:59.122Z,29.98
2022-08-17T16:19:02.553Z,29.92
2022-08-17T16:21:23.057Z,29.88
2022-08-17T16:23:26.092Z,29.83
2022-08-17T16:25:53.575Z,29.80
2022-08-17T16:27:56.553Z,29.76
2022-08-17T16:30:00.813Z,29.72
2022-08-17T16:32:09.877Z,29.69
2022-08-17T16:34:17.160Z,29.66
2022-08-17T16:36:23.180Z,29.62
2022-08-17T16:38:27.114Z,29.58
2022-08-17T16:40:36.133Z,29.56
2022-08-17T16:42:40.672Z,29.52
2022-08-17T16:44:43.724Z,29.49
2022-08-17T16:46:48.328Z,29.46
2022-08-17T16:48:52.012Z,29.44
2022-08-17T16:51:03.480Z,29.40
2022-08-17T16:53:10.594Z,29.36
2022-08-17T16:55:13.842Z,29.32
2022-08-17T16:57:18.793Z,29.28
2022-08-17T16:59:31.226Z,29.29
2022-08-17T17:01:44.083Z,29.29
2022-08-17T17:03:54.057Z,29.26
2022-08-17T17:06:06.541Z,29.21
2022-08-17T17:08:12.692Z,29.17
2022-08-17T17:10:19.859Z,29.14
2022-08-17T17:13:00.910Z,29.11
2022-08-17T17:14:52.124Z,29.07
2022-08-17T17:17:01.210Z,29.05
2022-08-17T17:19:10.652Z,28.99
2022-08-17T17:21:15.913Z,28.95
2022-08-17T17:23:31.545Z,28.90
2022-08-17T17:25:40.583Z,28.86
2022-08-17T17:27:51.911Z,28.80
2022-08-17T17:30:06.088Z,28.77
2022-08-17T17:32:17.225Z,28.70
2022-08-17T17:34:20.853Z,28.68
2022-08-17T17:36:26.558Z,28.63
2022-08-17T17:38:33.387Z,28.60
2022-08-17T17:40:39.564Z,28.54
2022-08-17T17:42:43.364Z,28.50
2022-08-17T17:44:54.949Z,28.49
2022-08-17T17:47:00.190Z,28.46
2022-08-17T17:49:03.293Z,28.43
2022-08-17T17:51:11.606Z,28.41
2022-08-17T17:53:35.330Z,28.36
2022-08-17T17:55:53.660Z,28.32
2022-08-17T17:58:04.535Z,28.27
2022-08-17T18:00:13.271Z,28.23
2022-08-17T18:02:40.109Z,28.18
2022-08-17T18:04:47.973Z,28.13
2022-08-17T18:07:00.392Z,28.06
2022-08-17T18:09:10.286Z,28.00
2022-08-17T18:11:24.488Z,27.94
2022-08-17T18:13:35.362Z,27.88
2022-08-17T18:15:51.299Z,27.80
2022-08-17T18:18:03.704Z,27.74
2022-08-17T18:20:07.948Z,27.66
2022-08-17T18:22:14.731Z,27.61
2022-08-17T18:24:30.243Z,27.55
2022-08-17T18:26:51.417Z,27.49
2022-08-17T18:28:55.518Z,27.45
2022-08-17T18:31:12.655Z,27.37
2022-08-17T18:33:20.847Z,27.32
2022-08-17T18:35:31.916Z,27.22
2022-08-17T18:37:42.678Z,27.13
2022-08-17T18:39:45.791Z,27.06
2022-08-17T18:41:50.737Z,26.97
2022-08-17T18:44:02.340Z,26.88
2022-08-17T18:46:28.948Z,26.84
2022-08-17T18:48:36.435Z,26.80
2022-08-17T18:50:42.328Z,26.74
2022-08-17T18:52:47.268Z,26.66
2022-08-17T18:55:08.559Z,26.60
2022-08-17T18:57:12.441Z,26.56
2022-08-17T18:59:39.779Z,26.53
2022-08-17T19:01:54.605Z,26.49
2022-08-17T19:03:59.358Z,26.44
2022-08-17T19:06:19.198Z,26.35
2022-08-17T19:08:24.787Z,26.27
2022-08-17T19:10:46.283Z,26.17
2022-08-17T19:12:54.999Z,26.08
2022-08-17T19:15:03.911Z,26.02
2022-08-17T19:17:12.953Z,25.97
2022-08-17T19:19:18.556Z,25.93
2022-08-17T19:21:25.366Z,25.90
2022-08-17T19:23:32.771Z,25.85
2022-08-17T19:25:38.524Z,25.81
2022-08-17T19:27:49.979Z,25.76
2022-08-17T19:29:56.292Z,25.71
2022-08-17T19:31:59.750Z,25.68
2022-08-17T19:34:04.309Z,25.61
2022-08-17T19:36:11.206Z,25.55
2022-08-17T19:38:25.344Z,25.50
2022-08-17T19:40:52.436Z,25.46
2022-08-17T19:43:05.052Z,25.43
2022-08-17T19:45:14.273Z,25.42
2022-08-17T19:47:50.904Z,25.40
2022-08-17T19:49:53.757Z,25.39
2022-08-17T19:51:59.566Z,25.33
2022-08-17T19:54:07.433Z,25.23
2022-08-17T19:56:15.992Z,25.17
2022-08-17T19:58:32.596Z,25.09
2022-08-17T20:00:40.959Z,25.03
2022-08-17T20:02:54.048Z,24.98
2022-08-17T20:05:01.531Z,24.96
2022-08-17T20:07:07.906Z,24.93
2022-08-17T20:09:15.375Z,24.92
2022-08-17T20:11:22.485Z,24.86
2022-08-17T20:13:33.138Z,24.82
2022-08-17T20:15:41.107Z,24.79
2022-08-17T20:17:46.635Z,24.77
2022-08-17T20:19:52.376Z,24.74
2022-08-17T20:22:01.652Z,24.74
2022-08-17T20:24:14.157Z,24.70
2022-08-17T20:26:21.420Z,24.65
2022-08-17T20:28:27.895Z,24.58
2022-08-17T20:30:34.287Z,24.53
2022-08-17T20:32:51.865Z,24.50
2022-08-17T20:35:20.057Z,24.47
2022-08-17T20:37:31.943Z,24.43
2022-08-17T20:39:39.837Z,24.40
2022-08-17T20:42:05.323Z,24.34
2022-08-17T20:44:08.463Z,24.35
2022-08-17T20:46:24.784Z,24.33
2022-08-17T20:48:38.621Z,24.34
2022-08-17T20:50:45.838Z,24.32
2022-08-17T20:52:53.458Z,24.31
2022-08-17T20:54:58.101Z,24.28
2022-08-17T20:57:01.855Z,24.27
2022-08-17T20:59:09.129Z,24.26
2022-08-17T21:01:14.003Z,24.18
2022-08-17T21:03:50.631Z,24.14
2022-08-17T21:05:59.935Z,24.05
2022-08-17T21:08:16.261Z,23.99
2022-08-17T21:10:30.994Z,23.93
2022-08-17T21:12:42.507Z,23.91
2022-08-17T21:15:02.209Z,23.88
2022-08-17T21:17:20.244Z,23.86
2022-08-17T21:19:54.162Z,23.82
2022-08-17T21:22:12.383Z,23.81
2022-08-17T21:24:25.134Z,23.80
2022-08-17T21:26:33.551Z,23.80
2022-08-17T21:29:01.291Z,23.78
2022-08-17T21:31:09.230Z,23.78
2022-08-17T21:33:21.448Z,23.76
2022-08-17T21:35:31.104Z,23.74
2022-08-17T21:37:40.285Z,23.72
2022-08-17T21:39:48.450Z,23.70
2022-08-17T21:41:53.801Z,23.71
2022-08-17T21:44:02.950Z,23.72
2022-08-17T21:46:08.262Z,23.73
2022-08-17T21:48:15.427Z,23.72
2022-08-17T21:50:20.682Z,23.71
2022-08-17T21:52:26.061Z,23.70
2022-08-17T21:54:34.575Z,23.66
2022-08-17T21:56:40.430Z,23.63
2022-08-17T21:58:48.477Z,23.59
2022-08-17T22:01:10.907Z,23.55
2022-08-17T22:03:24.287Z,23.50
2022-08-17T22:05:34.715Z,23.42
2022-08-17T22:07:40.706Z,23.42
2022-08-17T22:09:46.147Z,23.42
2022-08-17T22:11:57.126Z,23.44
2022-08-17T22:14:00.692Z,23.41
2022-08-17T22:16:27.966Z,23.38
2022-08-17T22:18:33.244Z,23.35
2022-08-17T22:20:36.432Z,23.33
2022-08-17T22:23:20.484Z,23.33
2022-08-17T22:25:25.349Z,23.32
2022-08-17T22:27:55.472Z,23.33
2022-08-17T22:30:00.239Z,23.30
2022-08-17T22:32:03.541Z,23.21
2022-08-17T22:34:13.841Z,23.18
2022-08-17T22:36:26.001Z,23.16
2022-08-17T22:38:33.385Z,23.18
2022-08-17T22:40:36.515Z,23.20
2022-08-17T22:42:47.274Z,23.24
2022-08-17T22:44:54.062Z,23.31
2022-08-17T22:47:03.680Z,23.32
2022-08-17T22:49:07.489Z,23.31
2022-08-17T22:51:14.613Z,23.34
2022-08-17T22:53:38.268Z,23.37
2022-08-17T22:56:07.875Z,23.39
2022-08-17T22:58:37.655Z,23.40
2022-08-17T23:13:15.742Z,23.30
2022-08-17T23:15:32.868Z,23.29
2022-08-17T23:42:57.526Z,22.63
2022-08-17T23:45:03.182Z,22.55
2022-08-17T23:47:07.803Z,22.56
2022-08-17T23:49:10.828Z,22.56
2022-08-17T23:55:19.855Z,22.49
2022-08-17T23:57:33.649Z,22.46
2022-08-17T23:59:40.929Z,22.45
